»·PEaware :: NKS518 KSEA-KSFO

NKS518 :: KSEA-KSFO

FLIGHT INFORMATION

Flight Status: Arrived
Operator:
Spirit Airlines
More flights by this operator :: More flights under this callsign
Pilot: Mike G. (10864)
Aircraft: AIRBUS A321
(A321)
More flights by this aircraft type
Origin: KSEA Seattle-Tacoma Intl
United States
Destination: KSFO San Francisco Intl
United States
More flights between these airports :: More routes between these airports
Route: +HAROB6 FEPOT Q3 FOWND MLBEC BDEGA3
File this flight plan on PilotEdge
Remarks: RMK / SIMBRIEF
Altitude:
(Current/Filed)
33,000ft
Speed:
(Current/Filed)
450kts
Departed: 16-Oct-20 12:38 PM
Arrived: 16-Oct-20 02:15 PM
Distance/Time
Traveled:
590nm/1:37
Distance/Time
To Go:
Arrived

Flight Plot

Page will automatically refresh every two minutes.

Flight plan parsing failed; only flown route is shown


Map Options




Map Legend


Flown Route
Filed Route
Departure Airport
Arrival Airport
Navaid (VOR, NDB)
Fix

Horizontal Profiles

Position Reports

Time Latitude Longitude Heading Altitude Ground
Speed
16-Oct-20 12:08 47.446461 -122.299986 148 386ft 0kts
16-Oct-20 12:09 47.446461 -122.299986 148 386ft 0kts
16-Oct-20 12:10 47.446461 -122.299986 148 386ft 0kts
16-Oct-20 12:11 47.446461 -122.299986 148 386ft 0kts
16-Oct-20 12:12 47.446461 -122.299986 148 386ft 0kts
16-Oct-20 12:13 47.446461 -122.299986 148 386ft 0kts
16-Oct-20 12:14 47.446461 -122.299986 148 386ft 0kts
16-Oct-20 12:15 47.446461 -122.299986 148 386ft 0kts
16-Oct-20 12:16 47.446461 -122.299986 148 386ft 0kts
16-Oct-20 12:17 47.446461 -122.299986 148 386ft 0kts
16-Oct-20 12:18 47.446461 -122.299986 148 386ft 0kts
16-Oct-20 12:19 47.446461 -122.299986 148 386ft 0kts
16-Oct-20 12:20 47.446461 -122.299986 148 386ft 0kts
16-Oct-20 12:21 47.446461 -122.299986 148 386ft 0kts
16-Oct-20 12:22 47.446461 -122.299986 148 386ft 0kts
16-Oct-20 12:23 47.446461 -122.299986 148 386ft 0kts
16-Oct-20 12:24 47.446461 -122.299986 148 386ft 0kts
16-Oct-20 12:25 47.446461 -122.299986 148 386ft 0kts
16-Oct-20 12:26 47.446461 -122.299987 148 386ft 0kts
16-Oct-20 12:27 47.446876 -122.300338 170 388ft 2kts
16-Oct-20 12:28 47.447242 -122.300136 226 389ft 0kts
16-Oct-20 12:29 47.447242 -122.300136 226 389ft 0kts
16-Oct-20 12:30 47.447188 -122.300220 227 389ft 3kts
16-Oct-20 12:31 47.447212 -122.303288 309 398ft 10kts
16-Oct-20 12:32 47.447775 -122.305704 277 401ft 12kts
16-Oct-20 12:33 47.452156 -122.306270 0 421ft 17kts
16-Oct-20 12:34 47.457026 -122.306208 0 440ft 19kts
16-Oct-20 12:35 47.463016 -122.306172 358 424ft 16kts
16-Oct-20 12:36 47.463638 -122.307328 241 411ft 17kts
16-Oct-20 12:37 47.436517 -122.307952 182 1214ft 171kts
16-Oct-20 12:38 47.388186 -122.308997 185 2880ft 203kts
16-Oct-20 12:39 47.326360 -122.326134 228 4932ft 238kts
16-Oct-20 12:40 47.309076 -122.418172 263 7881ft 240kts
16-Oct-20 12:41 47.309109 -122.516302 275 10482ft 247kts
16-Oct-20 12:42 47.312443 -122.631079 275 11411ft 313kts
16-Oct-20 12:43 47.311817 -122.770752 264 12896ft 361kts
16-Oct-20 12:44 47.277644 -122.915047 254 15178ft 381kts
16-Oct-20 12:45 47.227598 -123.055139 233 17379ft 409kts
16-Oct-20 12:46 47.134871 -123.160951 224 19309ft 429kts
16-Oct-20 12:47 47.018763 -123.219796 187 20935ft 480kts
16-Oct-20 12:48 46.883869 -123.213519 183 22439ft 491kts
16-Oct-20 12:49 46.746143 -123.208061 183 23738ft 499kts
16-Oct-20 12:50 46.607334 -123.203391 183 24887ft 505kts
16-Oct-20 12:52 46.467036 -123.198737 183 26339ft 502kts
16-Oct-20 12:53 46.327854 -123.194179 183 27608ft 499kts
16-Oct-20 12:54 46.189778 -123.189691 183 28726ft 497kts
16-Oct-20 12:55 46.052280 -123.185233 183 29713ft 494kts
16-Oct-20 12:56 45.916595 -123.180866 183 30533ft 493kts
16-Oct-20 12:57 45.778599 -123.176396 183 31224ft 492kts
16-Oct-20 12:58 45.642017 -123.172028 183 31822ft 491kts
16-Oct-20 12:59 45.506118 -123.167713 183 32350ft 490kts
16-Oct-20 13:00 45.370329 -123.163420 183 32832ft 489kts
16-Oct-20 13:01 45.234591 -123.159157 183 33251ft 488kts
16-Oct-20 13:02 45.099157 -123.154937 183 33327ft 488kts
16-Oct-20 13:03 44.964639 -123.150812 182 33328ft 482kts
16-Oct-20 13:04 44.830837 -123.146587 182 33326ft 481kts
16-Oct-20 13:05 44.697308 -123.142438 182 33334ft 481kts
16-Oct-20 13:06 44.562974 -123.138317 182 33330ft 486kts
16-Oct-20 13:07 44.428636 -123.133886 182 33329ft 486kts
16-Oct-20 13:07 44.315881 -123.129808 182 33329ft 486kts
16-Oct-20 13:09 44.158828 -123.124217 182 33329ft 486kts
16-Oct-20 13:09 44.046702 -123.120260 182 33329ft 485kts
16-Oct-20 13:11 43.889493 -123.114738 182 33324ft 486kts
16-Oct-20 13:11 43.776745 -123.110768 182 33328ft 486kts
16-Oct-20 13:12 43.641831 -123.106060 182 33329ft 486kts
16-Oct-20 13:13 43.507073 -123.101385 182 33329ft 486kts
16-Oct-20 13:14 43.372122 -123.096720 182 33329ft 486kts
16-Oct-20 13:15 43.237960 -123.092105 182 33329ft 486kts
16-Oct-20 13:16 43.102624 -123.087471 182 33329ft 486kts
16-Oct-20 13:17 42.967699 -123.082947 181 33330ft 483kts
16-Oct-20 13:18 42.835067 -123.078452 180 33324ft 475kts
16-Oct-20 13:19 42.703171 -123.073883 180 33317ft 476kts
16-Oct-20 13:20 42.571335 -123.069422 180 33310ft 476kts
16-Oct-20 13:21 42.438720 -123.065004 180 33310ft 476kts
16-Oct-20 13:22 42.307378 -123.060803 180 33310ft 476kts
16-Oct-20 13:23 42.174888 -123.056544 180 33310ft 476kts
16-Oct-20 13:24 42.042736 -123.052303 180 33309ft 476kts
16-Oct-20 13:25 41.910459 -123.048082 180 33313ft 476kts
16-Oct-20 13:26 41.778428 -123.043877 180 33323ft 476kts
16-Oct-20 13:27 41.646663 -123.039695 180 33334ft 476kts
16-Oct-20 13:28 41.514037 -123.035503 180 33336ft 476kts
16-Oct-20 13:29 41.381737 -123.031314 180 33336ft 476kts
16-Oct-20 13:30 41.249543 -123.027304 180 33336ft 476kts
16-Oct-20 13:31 41.117346 -123.023358 180 33336ft 476kts
16-Oct-20 13:32 40.985889 -123.019507 179 33258ft 473kts
16-Oct-20 13:33 40.854527 -123.015507 179 33111ft 471kts
16-Oct-20 13:34 40.723576 -123.011572 179 33078ft 472kts
16-Oct-20 13:35 40.592550 -123.007674 179 33071ft 472kts
16-Oct-20 13:36 40.461830 -123.003802 179 33071ft 472kts
16-Oct-20 13:37 40.330529 -122.999931 179 33071ft 472kts
16-Oct-20 13:38 40.200065 -122.996096 179 33071ft 472kts
16-Oct-20 13:39 40.068628 -122.992250 179 33070ft 472kts
16-Oct-20 13:40 39.937481 -122.988427 179 33064ft 472kts
16-Oct-20 13:41 39.806393 -122.984622 179 33062ft 472kts
16-Oct-20 13:42 39.675372 -122.980827 179 33057ft 472kts
16-Oct-20 13:43 39.544375 -122.977042 179 33054ft 472kts
16-Oct-20 13:44 39.413608 -122.973274 179 33053ft 472kts
16-Oct-20 13:45 39.282410 -122.969499 179 33053ft 472kts
16-Oct-20 13:46 39.151497 -122.965701 179 33053ft 472kts
16-Oct-20 13:47 39.020476 -122.962579 179 31891ft 473kts
16-Oct-20 13:48 38.893267 -122.958417 176 29049ft 445kts
16-Oct-20 13:49 38.775695 -122.930725 167 27509ft 423kts
16-Oct-20 13:50 38.663676 -122.897287 167 25858ft 404kts
16-Oct-20 13:51 38.556984 -122.865779 167 24132ft 389kts
16-Oct-20 13:52 38.453489 -122.835391 166 22477ft 374kts
16-Oct-20 13:53 38.354301 -122.806249 166 20901ft 359kts
16-Oct-20 13:54 38.259456 -122.778438 166 19435ft 343kts
16-Oct-20 13:55 38.168418 -122.751937 166 17726ft 338kts
16-Oct-20 13:56 38.076396 -122.725216 166 15836ft 336kts
16-Oct-20 13:57 37.986995 -122.699275 166 14356ft 324kts
16-Oct-20 13:58 37.902097 -122.671020 153 12932ft 311kts
16-Oct-20 13:59 37.834977 -122.605761 139 11539ft 299kts
16-Oct-20 14:00 37.773940 -122.540953 139 10998ft 271kts
16-Oct-20 14:01 37.717181 -122.478340 124 10967ft 269kts
16-Oct-20 14:02 37.681221 -122.396226 117 9570ft 265kts
16-Oct-20 14:03 37.646960 -122.314796 117 8243ft 259kts
16-Oct-20 14:04 37.615070 -122.238235 117 7058ft 240kts
16-Oct-20 14:05 37.584605 -122.163736 116 5604ft 231kts
16-Oct-20 14:06 37.554044 -122.091067 117 4211ft 233kts
16-Oct-20 14:07 37.512573 -122.036480 187 3010ft 227kts
16-Oct-20 14:08 37.495176 -122.095248 313 3007ft 222kts
16-Oct-20 14:09 37.528425 -122.159469 298 3002ft 202kts
16-Oct-20 14:10 37.550669 -122.212116 297 2482ft 162kts
16-Oct-20 14:11 37.571587 -122.262291 297 1648ft 161kts
16-Oct-20 14:12 37.591381 -122.310445 297 891ft 153kts
16-Oct-20 14:13 37.611270 -122.357386 298 79ft 152kts
16-Oct-20 14:14 37.618941 -122.378035 270 28ft 8kts
16-Oct-20 14:15 37.618921 -122.378607 267 29ft 9kts
16-Oct-20 14:16 37.618378 -122.382062 139 32ft 0kts

Navigation Log

Ident Type
Flight plan parsing failed, navigation log unavailable